Time;durP1;ratioP1;P1;durP2;ratioP2;P2;SDS_P1;SDS_P2;PMS_P1;PMS_P2;Temp;Humidity;BMP_temperature;BMP_pressure;BME280_temperature;BME280_humidity;BME280_pressure;Samples;Min_cycle;Max_cycle;Signal;HPM_P1;HPM_P2
2021/12/04 00:02:09;;;;;;;2.60;1.27;;;-0.10;99.90;;;;;;5032496;28;20500;-73
2021/12/04 00:04:45;;;;;;;2.80;1.60;;;-0.10;99.90;;;;;;5032885;28;20037;-73
2021/12/04 00:07:12;;;;;;;2.25;1.50;;;-0.10;99.90;;;;;;5048726;28;20389;-74
2021/12/04 00:09:39;;;;;;;2.75;1.58;;;-0.10;99.90;;;;;;5049221;28;20094;-73
2021/12/04 00:12:12;;;;;;;1.98;1.30;;;-0.10;99.90;;;;;;5048391;28;20056;-74
2021/12/04 00:14:45;;;;;;;3.72;1.67;;;-0.10;99.90;;;;;;5048366;28;20048;-74
2021/12/04 00:17:17;;;;;;;2.08;1.50;;;-0.10;99.90;;;;;;5048512;28;20041;-73
2021/12/04 00:19:43;;;;;;;4.18;1.70;;;0.00;99.90;;;;;;5048090;28;20326;-73
2021/12/04 00:22:10;;;;;;;1.63;1.35;;;0.00;99.90;;;;;;5048190;28;20069;-74
2021/12/04 00:24:42;;;;;;;2.00;1.20;;;0.00;99.90;;;;;;5048399;28;20500;-74
2021/12/04 00:27:14;;;;;;;2.88;1.65;;;0.00;99.90;;;;;;5051755;28;20135;-74
2021/12/04 00:29:41;;;;;;;1.65;1.30;;;0.10;99.90;;;;;;5053305;28;20068;-73
2021/12/04 00:32:20;;;;;;;2.70;2.40;;;0.00;99.90;;;;;;5052060;28;20052;-73
2021/12/04 00:35:01;;;;;;;2.65;1.55;;;0.10;99.90;;;;;;5052255;28;20037;-74
2021/12/04 00:37:49;;;;;;;4.75;1.40;;;0.10;99.90;;;;;;5051926;28;20041;-73
2021/12/04 00:51:21;;;;;;;1.88;1.35;;;0.10;99.90;;;;;;5057762;28;20033;-74
2021/12/04 00:53:54;;;;;;;2.38;1.95;;;0.10;99.90;;;;;;5051220;28;20222;-74
2021/12/04 00:56:26;;;;;;;1.55;1.17;;;0.10;99.90;;;;;;5053014;28;20444;-74
2021/12/04 00:58:53;;;;;;;2.53;1.55;;;0.10;99.90;;;;;;5051856;28;20048;-74
2021/12/04 01:01:25;;;;;;;3.17;1.30;;;0.10;99.90;;;;;;5052757;28;20197;-74
2021/12/04 01:03:51;;;;;;;2.72;1.50;;;0.10;99.90;;;;;;5052007;28;20102;-74
2021/12/04 01:06:24;;;;;;;1.23;1.00;;;0.10;99.90;;;;;;5051889;28;20087;-74
2021/12/04 01:08:50;;;;;;;1.83;1.35;;;0.10;99.90;;;;;;5051206;28;20036;-73
2021/12/04 01:11:22;;;;;;;1.73;1.40;;;0.10;99.90;;;;;;5031449;28;20061;-72
2021/12/04 01:13:49;;;;;;;2.10;1.30;;;0.10;99.90;;;;;;5051062;28;20548;-73
2021/12/04 01:16:21;;;;;;;1.83;1.23;;;0.10;99.90;;;;;;5058418;28;20124;-73
2021/12/04 01:18:52;;;;;;;3.03;1.20;;;0.20;99.90;;;;;;5069901;28;20127;-73
2021/12/04 01:21:19;;;;;;;3.17;1.40;;;0.20;99.90;;;;;;5057304;28;20079;-73
2021/12/04 01:23:46;;;;;;;2.22;1.67;;;0.20;99.90;;;;;;5062625;28;20124;-73
2021/12/04 01:26:13;;;;;;;2.33;1.20;;;0.20;99.90;;;;;;5057818;28;20072;-73
2021/12/04 01:28:45;;;;;;;2.20;1.33;;;0.20;99.90;;;;;;5050110;28;20037;-73
2021/12/04 01:31:17;;;;;;;2.03;1.30;;;0.20;99.90;;;;;;5050489;28;20091;-73
2021/12/04 01:33:50;;;;;;;1.60;1.20;;;0.20;99.90;;;;;;5050851;28;20079;-73
2021/12/04 01:36:16;;;;;;;2.53;1.30;;;0.30;99.90;;;;;;5051985;28;20069;-73
2021/12/04 01:38:43;;;;;;;2.00;1.20;;;0.20;99.90;;;;;;5051164;28;20103;-73
2021/12/04 01:41:15;;;;;;;2.20;1.15;;;0.30;99.90;;;;;;5052430;28;20055;-73
2021/12/04 01:43:47;;;;;;;2.13;1.10;;;0.30;99.90;;;;;;5035711;28;20087;-73
2021/12/04 01:46:19;;;;;;;1.98;1.20;;;0.40;99.90;;;;;;5051172;28;20076;-73
2021/12/04 01:48:46;;;;;;;1.63;1.13;;;0.40;99.90;;;;;;5051119;28;20423;-73
2021/12/04 01:51:18;;;;;;;2.05;0.90;;;0.40;99.90;;;;;;5052014;28;20037;-73
2021/12/04 01:53:50;;;;;;;2.50;0.95;;;0.40;99.90;;;;;;5052408;28;20041;-73
2021/12/04 01:56:17;;;;;;;1.88;1.30;;;0.50;99.90;;;;;;5051017;28;20069;-73
2021/12/04 01:58:53;;;;;;;1.03;0.77;;;0.60;99.90;;;;;;5052131;28;20067;-73
2021/12/04 02:01:25;;;;;;;2.50;1.00;;;0.60;99.90;;;;;;5049922;28;20068;-73
2021/12/04 02:03:52;;;;;;;1.27;0.60;;;0.70;99.90;;;;;;5050015;28;20500;-73
2021/12/04 02:06:23;;;;;;;1.88;0.82;;;0.80;99.90;;;;;;5050293;28;20067;-73
2021/12/04 02:08:51;;;;;;;3.50;1.10;;;0.80;99.90;;;;;;5053178;28;20049;-73
2021/12/04 02:11:18;;;;;;;1.70;1.00;;;0.80;99.90;;;;;;5034628;28;20511;-73
2021/12/04 02:13:49;;;;;;;1.13;0.80;;;0.70;99.90;;;;;;5056050;28;20131;-73
2021/12/04 02:16:18;;;;;;;2.67;1.10;;;0.70;99.90;;;;;;5052864;28;20467;-73
2021/12/04 02:18:50;;;;;;;1.80;1.13;;;0.60;99.90;;;;;;5050707;28;20045;-73
2021/12/04 02:21:17;;;;;;;1.60;1.35;;;0.60;99.90;;;;;;5049946;28;20102;-73
2021/12/04 02:23:44;;;;;;;1.63;0.80;;;0.70;99.90;;;;;;5050971;28;20167;-73
2021/12/04 02:26:16;;;;;;;1.38;0.90;;;0.80;99.90;;;;;;5034131;28;20081;-73
2021/12/04 02:28:48;;;;;;;1.73;1.08;;;0.90;99.90;;;;;;5049898;28;20052;-73
2021/12/04 02:31:19;;;;;;;1.85;0.93;;;0.90;99.90;;;;;;5050455;28;20042;-73
2021/12/04 02:33:52;;;;;;;1.48;0.93;;;1.00;99.90;;;;;;5051008;28;20124;-73
2021/12/04 02:36:24;;;;;;;1.50;0.80;;;1.10;99.90;;;;;;5051275;28;20041;-72
2021/12/04 02:38:56;;;;;;;3.97;0.80;;;1.10;99.90;;;;;;5050960;28;20061;-73
2021/12/04 02:41:23;;;;;;;1.73;0.95;;;1.20;99.90;;;;;;5049710;28;20053;-73
2021/12/04 02:43:50;;;;;;;1.20;0.80;;;1.10;99.90;;;;;;5051585;28;20033;-73
2021/12/04 02:46:22;;;;;;;1.55;0.82;;;1.00;99.90;;;;;;5051468;28;20084;-73
2021/12/04 02:48:53;;;;;;;2.05;0.80;;;0.90;99.90;;;;;;5049426;28;20556;-73
2021/12/04 02:51:25;;;;;;;2.05;1.30;;;0.70;99.90;;;;;;5050894;28;20131;-73
2021/12/04 02:53:58;;;;;;;1.02;0.70;;;0.60;99.90;;;;;;5050113;28;20136;-73
2021/12/04 02:56:26;;;;;;;2.33;0.85;;;0.60;99.90;;;;;;5050159;28;20041;-73
2021/12/04 02:59:01;;;;;;;1.02;0.88;;;0.50;99.90;;;;;;5051197;28;20033;-73
2021/12/04 03:01:29;;;;;;;2.05;1.10;;;0.50;99.90;;;;;;5032989;28;20076;-73
2021/12/04 03:04:07;;;;;;;1.52;1.00;;;0.50;99.90;;;;;;5051124;28;20087;-73
2021/12/04 03:06:43;;;;;;;1.10;0.90;;;0.50;99.90;;;;;;5049990;28;20079;-72
2021/12/04 03:09:15;;;;;;;1.73;1.10;;;0.50;99.90;;;;;;5049639;28;20045;-73
2021/12/04 03:11:46;;;;;;;2.60;0.80;;;0.50;99.90;;;;;;5033569;28;20049;-73
2021/12/04 03:14:14;;;;;;;1.98;1.20;;;0.60;99.90;;;;;;5049928;28;20111;-73
2021/12/04 03:16:46;;;;;;;1.70;0.98;;;0.60;99.90;;;;;;5049927;28;20037;-73
2021/12/04 03:19:13;;;;;;;1.60;0.80;;;0.60;99.90;;;;;;5050312;28;20558;-73
2021/12/04 03:21:45;;;;;;;1.60;0.77;;;0.60;99.90;;;;;;5049582;28;20053;-72
2021/12/04 03:24:18;;;;;;;3.28;1.10;;;0.60;99.90;;;;;;5051041;28;20539;-72
2021/12/04 03:26:49;;;;;;;1.35;1.00;;;0.60;99.90;;;;;;5049683;28;20049;-72
2021/12/04 03:29:23;;;;;;;2.67;1.08;;;0.60;99.90;;;;;;5050810;28;20041;-72
2021/12/04 03:43:13;;;;;;;2.17;1.17;;;0.60;99.90;;;;;;5050951;28;20500;-73
2021/12/04 03:45:47;;;;;;;2.25;1.30;;;0.60;99.90;;;;;;5049468;28;20072;-73
2021/12/04 03:51:05;;;;;;;1.73;1.30;;;0.70;99.90;;;;;;5048987;28;20061;-74
2021/12/04 03:53:37;;;;;;;3.35;1.60;;;0.70;99.90;;;;;;5051114;28;20136;-72
2021/12/04 03:56:11;;;;;;;2.28;1.60;;;0.70;99.90;;;;;;5050034;28;20256;-72
2021/12/04 03:58:39;;;;;;;2.42;1.63;;;0.70;99.90;;;;;;5049670;28;20037;-73
2021/12/04 04:01:11;;;;;;;2.58;1.90;;;0.70;99.90;;;;;;5051160;28;20116;-71
2021/12/04 04:03:43;;;;;;;3.47;2.05;;;0.70;99.90;;;;;;5053343;28;20068;-72
2021/12/04 04:06:11;;;;;;;2.97;2.17;;;0.80;99.90;;;;;;5053425;28;20133;-74
2021/12/04 04:08:37;;;;;;;2.55;1.90;;;0.80;99.90;;;;;;5052977;28;20311;-73
2021/12/04 04:11:09;;;;;;;3.03;2.25;;;0.80;99.90;;;;;;5052517;28;20128;-73
2021/12/04 04:13:44;;;;;;;4.45;2.92;;;0.80;99.90;;;;;;5054269;28;20123;-73
2021/12/04 04:16:12;;;;;;;3.58;2.45;;;0.80;99.90;;;;;;5054268;28;20459;-73
2021/12/04 04:18:43;;;;;;;2.70;2.22;;;0.80;99.90;;;;;;5054291;28;20075;-73
2021/12/04 04:21:15;;;;;;;3.47;2.47;;;0.90;99.90;;;;;;5053749;28;20131;-73
2021/12/04 04:23:42;;;;;;;3.00;2.30;;;0.90;99.90;;;;;;5054049;28;20072;-73
2021/12/04 04:26:14;;;;;;;3.65;2.60;;;0.90;99.90;;;;;;5052809;28;20095;-73
2021/12/04 04:28:40;;;;;;;3.33;2.38;;;0.90;99.90;;;;;;5036078;28;20076;-73
2021/12/04 04:31:09;;;;;;;2.65;2.33;;;0.90;99.90;;;;;;5053776;28;20447;-73
2021/12/04 04:33:43;;;;;;;2.25;1.90;;;1.00;99.90;;;;;;5052637;28;20048;-73
2021/12/04 05:11:46;;;;;;;1.90;1.38;;;1.20;99.90;;;;;;5051247;28;20554;-77
2021/12/04 05:14:19;;;;;;;2.08;1.42;;;1.30;99.90;;;;;;5051898;28;20584;-76
2021/12/04 05:16:58;;;;;;;1.63;1.08;;;1.30;99.90;;;;;;5036046;28;20567;-76
2021/12/04 05:19:52;;;;;;;2.08;1.30;;;1.40;99.90;;;;;;5051792;28;20135;-77
2021/12/04 05:22:20;;;;;;;1.83;1.50;;;1.40;99.90;;;;;;5052478;28;20139;-75
2021/12/04 05:24:52;;;;;;;1.92;1.00;;;1.40;99.90;;;;;;5053219;28;20518;-75
2021/12/04 05:27:29;;;;;;;1.45;1.30;;;1.50;99.90;;;;;;5035956;28;20053;-74
2021/12/04 05:29:55;;;;;;;1.50;0.90;;;1.50;99.90;;;;;;5051413;28;20148;-76
2021/12/04 05:32:28;;;;;;;1.42;1.02;;;1.60;99.90;;;;;;5032733;28;20119;-75
2021/12/04 05:34:54;;;;;;;2.08;1.20;;;1.60;99.90;;;;;;5052126;28;20073;-76
2021/12/04 05:37:29;;;;;;;2.83;1.10;;;1.60;99.90;;;;;;5020814;28;20132;-76
2021/12/04 05:40:01;;;;;;;1.40;1.00;;;1.70;99.90;;;;;;5027772;28;20128;-76
2021/12/04 05:42:29;;;;;;;1.85;1.00;;;1.70;99.90;;;;;;5045980;28;20051;-75
2021/12/04 05:44:56;;;;;;;1.40;1.10;;;1.70;99.90;;;;;;5046281;28;20087;-74
2021/12/04 05:47:38;;;;;;;1.55;1.17;;;1.80;99.90;;;;;;5031314;28;20072;-75
2021/12/04 05:55:32;;;;;;;1.60;1.10;;;2.10;99.90;;;;;;5031370;28;20075;-76
2021/12/04 05:58:03;;;;;;;1.50;1.15;;;2.20;99.90;;;;;;5032125;28;20041;-75
2021/12/04 06:00:30;;;;;;;2.00;1.20;;;2.10;99.90;;;;;;5031052;28;20064;-76
2021/12/04 06:03:02;;;;;;;1.55;1.10;;;2.20;99.90;;;;;;5032081;28;20129;-75
2021/12/04 06:05:36;;;;;;;1.65;1.13;;;2.20;99.90;;;;;;5015571;28;20224;-76
2021/12/04 06:08:08;;;;;;;1.50;1.00;;;2.20;99.90;;;;;;5038932;28;20124;-75
2021/12/04 06:10:40;;;;;;;2.28;1.30;;;2.20;99.90;;;;;;5036997;28;20055;-75
2021/12/04 06:13:14;;;;;;;1.42;1.00;;;2.30;99.90;;;;;;5034983;28;20116;-75
2021/12/04 06:15:41;;;;;;;2.33;1.45;;;2.30;99.90;;;;;;5050934;28;20064;-76
2021/12/04 06:18:08;;;;;;;1.60;1.00;;;2.30;99.90;;;;;;5033323;28;20124;-74
2021/12/04 06:23:26;;;;;;;1.75;1.20;;;2.30;99.90;;;;;;5048532;28;20103;-76
2021/12/04 06:25:53;;;;;;;1.55;1.00;;;2.40;99.90;;;;;;5046919;28;21585;-75
2021/12/04 06:28:26;;;;;;;2.33;1.10;;;2.50;99.90;;;;;;5027001;28;20118;-74
2021/12/04 06:30:59;;;;;;;2.67;1.30;;;2.50;99.90;;;;;;5040930;28;20083;-75
2021/12/04 06:33:31;;;;;;;1.50;1.20;;;2.60;99.90;;;;;;5042059;28;20403;-74
2021/12/04 06:36:04;;;;;;;3.00;1.10;;;2.60;99.90;;;;;;5028200;28;20037;-73
2021/12/04 06:38:31;;;;;;;1.95;1.20;;;2.60;99.90;;;;;;5044555;28;20069;-75
2021/12/04 06:41:03;;;;;;;2.42;1.10;;;2.60;99.90;;;;;;5032243;28;20065;-74
2021/12/04 06:43:30;;;;;;;3.00;1.77;;;2.60;99.90;;;;;;5030513;28;20081;-74
2021/12/04 06:46:02;;;;;;;1.50;1.20;;;2.60;99.90;;;;;;5037397;28;20550;-74
2021/12/04 06:49:09;;;;;;;0.93;0.80;;;2.60;99.90;;;;;;5034932;28;20049;-74
2021/12/04 06:51:46;;;;;;;1.95;1.00;;;2.60;99.90;;;;;;5044781;28;20048;-74
2021/12/04 06:54:21;;;;;;;1.63;1.10;;;2.60;99.90;;;;;;5049542;28;20037;-73
2021/12/04 06:56:53;;;;;;;1.15;1.05;;;2.60;99.90;;;;;;5050597;28;20129;-73
2021/12/04 06:59:28;;;;;;;1.00;0.80;;;2.60;99.90;;;;;;5049529;28;20139;-74
2021/12/04 07:01:54;;;;;;;1.30;0.98;;;2.60;99.90;;;;;;5049271;28;20136;-73
2021/12/04 07:04:34;;;;;;;1.75;0.90;;;2.60;99.90;;;;;;5050661;28;20128;-74
2021/12/04 07:07:02;;;;;;;1.73;1.15;;;2.60;99.90;;;;;;5047304;28;20076;-72
2021/12/04 07:09:29;;;;;;;1.35;1.00;;;2.60;99.90;;;;;;5047367;28;20076;-73
2021/12/04 07:11:55;;;;;;;1.70;1.00;;;2.70;99.90;;;;;;5050466;28;20065;-73
2021/12/04 07:14:29;;;;;;;0.95;0.70;;;2.70;99.90;;;;;;5049501;28;20049;-73
2021/12/04 07:16:57;;;;;;;1.40;0.90;;;2.70;99.90;;;;;;5049586;28;20500;-73
2021/12/04 07:19:30;;;;;;;1.75;1.10;;;2.70;99.90;;;;;;5050641;28;20033;-74
2021/12/04 07:22:03;;;;;;;2.65;1.02;;;2.70;99.90;;;;;;5048717;28;20106;-72
2021/12/04 07:24:35;;;;;;;1.00;0.90;;;2.80;99.90;;;;;;5049248;28;20037;-74
2021/12/04 07:27:05;;;;;;;1.40;1.10;;;2.80;99.90;;;;;;5050077;28;20092;-73
2021/12/04 07:29:37;;;;;;;1.02;0.77;;;2.90;99.90;;;;;;5049440;28;20047;-74
2021/12/04 07:32:09;;;;;;;1.52;1.00;;;3.00;99.90;;;;;;5050067;28;20388;-74
2021/12/04 07:34:41;;;;;;;2.15;1.25;;;3.00;99.90;;;;;;5049063;28;20047;-74
2021/12/04 07:37:15;;;;;;;1.40;1.30;;;3.10;99.90;;;;;;5048964;28;20135;-73
2021/12/04 07:39:46;;;;;;;0.95;0.82;;;3.10;99.90;;;;;;5048832;28;20598;-75
2021/12/04 07:42:21;;;;;;;1.83;1.00;;;3.10;99.90;;;;;;5049360;28;20079;-74
2021/12/04 07:44:48;;;;;;;1.17;0.95;;;3.10;99.90;;;;;;5050301;28;20069;-73
2021/12/04 07:47:20;;;;;;;1.58;1.20;;;3.20;99.90;;;;;;5050486;28;20045;-73
2021/12/04 07:49:46;;;;;;;0.93;0.88;;;3.20;99.90;;;;;;5048693;28;20144;-74
2021/12/04 07:52:18;;;;;;;0.90;0.85;;;3.30;99.90;;;;;;5048891;28;20462;-74
2021/12/04 07:54:48;;;;;;;1.13;1.00;;;3.30;99.90;;;;;;5049212;28;20041;-73
2021/12/04 07:57:15;;;;;;;1.02;0.80;;;3.30;99.90;;;;;;5039161;28;20041;-74
2021/12/04 07:59:42;;;;;;;1.17;0.93;;;3.40;99.90;;;;;;5032180;28;20045;-73
2021/12/04 08:02:16;;;;;;;0.90;0.80;;;3.40;99.90;;;;;;5050078;28;20571;-72
2021/12/04 08:04:47;;;;;;;1.52;0.90;;;3.40;99.90;;;;;;5046171;28;20128;-74
2021/12/04 08:07:14;;;;;;;1.00;0.80;;;3.40;99.90;;;;;;5049383;28;20547;-74
2021/12/04 08:09:41;;;;;;;0.80;0.70;;;3.40;99.90;;;;;;5032345;28;20707;-73
2021/12/04 08:12:13;;;;;;;1.30;1.00;;;3.50;99.90;;;;;;5047581;28;20124;-73
2021/12/04 08:14:47;;;;;;;1.13;0.82;;;3.50;99.90;;;;;;5049750;28;20091;-73
2021/12/04 08:17:13;;;;;;;1.20;0.95;;;3.60;99.90;;;;;;5047952;28;20135;-74
2021/12/04 08:19:40;;;;;;;1.50;0.88;;;3.70;99.90;;;;;;5048980;28;20080;-74
2021/12/04 08:22:12;;;;;;;1.60;1.00;;;3.70;99.90;;;;;;5049299;28;20139;-74
2021/12/04 08:24:42;;;;;;;1.27;0.85;;;3.70;99.90;;;;;;5049027;28;20040;-74
2021/12/04 08:27:12;;;;;;;0.73;0.70;;;3.80;99.90;;;;;;5049218;28;20058;-72
2021/12/04 08:29:45;;;;;;;1.67;0.80;;;3.90;99.90;;;;;;5047782;28;20143;-73
2021/12/04 08:32:16;;;;;;;1.10;0.70;;;4.00;99.90;;;;;;5048933;28;20051;-75
2021/12/04 08:34:43;;;;;;;1.00;0.70;;;4.00;99.90;;;;;;5049486;28;20072;-74
2021/12/04 08:37:16;;;;;;;1.10;0.70;;;4.10;99.90;;;;;;5047529;28;20530;-73
2021/12/04 08:39:49;;;;;;;0.80;0.60;;;4.10;99.90;;;;;;5052135;28;20053;-73
2021/12/04 08:42:19;;;;;;;0.88;0.60;;;4.10;99.90;;;;;;5049047;28;20045;-74
2021/12/04 08:44:52;;;;;;;2.10;0.60;;;4.20;99.90;;;;;;5033199;28;20575;-73
2021/12/04 08:47:25;;;;;;;1.40;0.93;;;4.30;99.90;;;;;;5049114;28;20057;-74
2021/12/04 08:49:52;;;;;;;2.65;1.13;;;4.30;99.90;;;;;;5052213;28;20084;-74
2021/12/04 08:52:19;;;;;;;1.00;0.80;;;4.40;99.90;;;;;;5035408;28;20492;-74
2021/12/04 08:54:50;;;;;;;2.60;0.70;;;4.40;99.90;;;;;;5036196;28;20128;-74
2021/12/04 08:57:22;;;;;;;3.58;1.10;;;4.40;99.90;;;;;;5047442;28;20039;-73
2021/12/04 08:59:54;;;;;;;3.28;2.70;;;4.40;99.90;;;;;;5042491;28;20503;-72
2021/12/04 09:02:21;;;;;;;1.40;1.30;;;4.40;99.90;;;;;;5045702;28;20187;-74
2021/12/04 09:04:48;;;;;;;1.08;0.90;;;4.50;99.90;;;;;;5051850;28;20114;-74
2021/12/04 09:07:18;;;;;;;2.03;1.13;;;4.60;99.90;;;;;;5053143;28;20079;-74
2021/12/04 09:09:55;;;;;;;0.77;0.63;;;4.60;99.90;;;;;;5048304;28;20120;-74
2021/12/04 09:12:28;;;;;;;0.73;0.60;;;4.60;99.90;;;;;;5049596;28;20051;-74
2021/12/04 09:15:02;;;;;;;1.30;0.80;;;4.60;99.90;;;;;;5032870;28;20112;-73
2021/12/04 09:17:29;;;;;;;1.25;0.80;;;4.60;99.90;;;;;;5027690;28;20116;-74
2021/12/04 09:19:56;;;;;;;1.30;0.90;;;4.70;99.90;;;;;;5051878;28;20049;-73
2021/12/04 09:22:28;;;;;;;0.98;0.77;;;4.70;99.90;;;;;;5051856;28;20076;-74
2021/12/04 09:25:04;;;;;;;0.80;0.60;;;4.70;99.90;;;;;;5052591;28;20120;-74
2021/12/04 10:06:10;;;;;;;1.00;0.60;;;5.30;99.90;;;;;;5049847;28;20478;-74
2021/12/04 10:11:59;;;;;;;0.73;0.60;;;5.30;99.90;;;;;;5049780;28;20065;-73
2021/12/04 10:23:04;;;;;;;0.95;0.65;;;5.50;99.90;;;;;;5047707;28;20125;-73
2021/12/04 10:33:58;;;;;;;1.00;0.80;;;5.70;99.90;;;;;;5049878;28;20061;-74
2021/12/04 10:36:34;;;;;;;1.02;0.63;;;5.80;99.90;;;;;;5050006;28;20072;-73
2021/12/04 10:39:10;;;;;;;1.48;0.73;;;5.80;99.90;;;;;;5051096;28;20061;-73
2021/12/04 10:41:44;;;;;;;0.95;0.60;;;5.80;99.90;;;;;;5033653;28;20041;-71
2021/12/04 10:44:22;;;;;;;1.08;0.77;;;5.90;99.90;;;;;;5051116;28;20045;-73
2021/12/04 10:47:07;;;;;;;2.53;1.30;;;5.90;99.90;;;;;;5033491;28;20136;-73
2021/12/04 10:55:19;;;;;;;1.15;0.82;;;6.00;99.90;;;;;;5050784;28;20132;-74
2021/12/04 11:04:01;;;;;;;1.23;0.77;;;6.10;99.90;;;;;;5043377;28;20110;-71
2021/12/04 11:43:48;;;;;;;1.23;0.98;;;6.40;99.90;;;;;;5049819;28;20069;-72
2021/12/04 11:46:40;;;;;;;1.40;0.90;;;6.50;99.90;;;;;;5029763;28;20510;-72
2021/12/04 11:49:21;;;;;;;0.98;0.68;;;6.50;99.90;;;;;;5029369;28;20080;-72
2021/12/04 11:52:04;;;;;;;1.50;0.85;;;6.50;99.90;;;;;;5030119;28;20526;-72
2021/12/04 11:54:53;;;;;;;1.60;1.10;;;6.50;99.90;;;;;;5032220;28;20579;-73
2021/12/04 11:57:27;;;;;;;;;;;6.50;99.90;;;;;;5042674;28;20041;-71
2021/12/04 11:59:54;;;;;;;;;;;6.50;99.90;;;;;;5045336;28;19963;-72
2021/12/04 12:02:23;;;;;;;0.77;0.60;;;6.60;99.90;;;;;;5049858;28;20351;-72
2021/12/04 12:04:56;;;;;;;0.73;0.60;;;6.60;99.90;;;;;;5048296;28;20128;-72
2021/12/04 12:07:29;;;;;;;1.40;0.82;;;6.70;99.90;;;;;;5049394;28;20124;-72
2021/12/04 12:10:07;;;;;;;0.88;0.60;;;6.70;99.90;;;;;;5037387;28;20776;-71
2021/12/04 12:12:43;;;;;;;0.95;0.52;;;6.80;99.90;;;;;;5046828;28;20079;-71
2021/12/04 12:15:41;;;;;;;1.02;0.60;;;6.90;99.90;;;;;;5046812;28;20064;-72
2021/12/04 12:18:17;;;;;;;0.70;0.60;;;7.00;99.90;;;;;;5038441;28;20053;-72
2021/12/04 12:20:50;;;;;;;0.93;0.60;;;7.00;99.90;;;;;;5031681;28;20069;-73
2021/12/04 12:23:26;;;;;;;0.60;0.50;;;7.10;99.90;;;;;;5032368;28;20461;-72
2021/12/04 12:37:28;;;;;;;0.82;0.50;;;7.00;99.90;;;;;;5036065;28;20518;-72
2021/12/04 12:40:10;;;;;;;1.30;0.70;;;7.10;99.90;;;;;;5040543;28;20129;-75
2021/12/04 12:42:43;;;;;;;1.23;0.90;;;7.00;99.90;;;;;;5041528;28;20123;-72
2021/12/04 12:45:21;;;;;;;1.00;0.80;;;7.10;99.90;;;;;;5047613;28;20721;-71
2021/12/04 12:47:57;;;;;;;1.23;0.70;;;7.10;99.90;;;;;;5050850;28;20095;-72
2021/12/04 12:50:34;;;;;;;1.88;0.93;;;7.10;99.90;;;;;;5044841;28;20378;-74
2021/12/04 12:53:09;;;;;;;1.15;0.70;;;7.10;99.90;;;;;;5044861;28;20124;-72
2021/12/04 12:55:42;;;;;;;0.90;0.65;;;7.10;99.90;;;;;;5036875;28;20087;-72
2021/12/04 12:58:29;;;;;;;1.17;0.80;;;7.10;99.90;;;;;;5048798;28;20060;-74
2021/12/04 13:12:49;;;;;;;1.40;0.85;;;7.00;99.90;;;;;;5053125;28;20411;-73
2021/12/04 13:15:36;;;;;;;1.70;1.10;;;7.00;99.90;;;;;;5053117;28;20484;-72
2021/12/04 13:18:12;;;;;;;1.77;1.05;;;7.00;99.90;;;;;;5053123;28;20746;-72
2021/12/04 13:20:44;;;;;;;2.00;1.10;;;7.00;99.90;;;;;;5051310;28;20439;-72
2021/12/04 13:23:20;;;;;;;1.90;0.90;;;6.90;99.90;;;;;;5046953;28;20068;-73
2021/12/04 13:25:58;;;;;;;1.30;1.00;;;6.90;99.90;;;;;;5049424;28;20048;-74
2021/12/04 13:28:33;;;;;;;1.35;0.93;;;6.90;99.90;;;;;;5052034;28;20072;-73
2021/12/04 13:31:00;;;;;;;1.17;0.80;;;6.90;99.90;;;;;;5052230;28;20123;-72
2021/12/04 13:33:37;;;;;;;1.13;0.85;;;6.80;99.90;;;;;;5052354;28;20503;-74
2021/12/04 13:36:15;;;;;;;1.05;0.70;;;6.80;99.90;;;;;;5048738;28;20057;-72
2021/12/04 13:38:56;;;;;;;1.13;1.02;;;6.80;99.90;;;;;;5053568;28;20061;-72
2021/12/04 13:41:24;;;;;;;1.08;0.70;;;6.80;99.90;;;;;;5035693;28;20068;-73
2021/12/04 13:44:00;;;;;;;1.63;1.10;;;6.80;99.90;;;;;;5052465;28;20137;-73
2021/12/04 13:46:40;;;;;;;1.45;0.95;;;6.80;99.90;;;;;;5036267;28;20135;-73
2021/12/04 13:49:16;;;;;;;0.80;0.63;;;6.80;99.90;;;;;;5052288;28;20068;-73
2021/12/04 13:51:56;;;;;;;0.55;0.40;;;6.80;99.90;;;;;;5058300;28;20112;-72
2021/12/04 13:54:30;;;;;;;1.17;0.80;;;6.80;99.90;;;;;;5053483;28;20060;-73
2021/12/04 13:57:08;;;;;;;;;;;6.80;99.90;;;;;;5053913;28;20041;-72
2021/12/04 13:59:35;;;;;;;1.20;0.80;;;6.90;99.90;;;;;;5052165;28;20355;-73
2021/12/04 14:02:03;;;;;;;2.22;0.80;;;6.80;99.90;;;;;;5052528;28;20463;-72
2021/12/04 14:04:36;;;;;;;1.15;0.65;;;6.80;99.90;;;;;;5047970;28;20071;-73
2021/12/04 14:07:03;;;;;;;0.77;0.50;;;6.80;99.90;;;;;;5029330;28;20052;-73
2021/12/04 14:09:38;;;;;;;0.88;0.50;;;6.90;99.90;;;;;;5043128;28;20075;-73
2021/12/04 14:12:10;;;;;;;1.02;0.43;;;6.90;99.90;;;;;;5055036;28;20395;-73
2021/12/04 14:14:42;;;;;;;0.75;0.63;;;6.90;99.90;;;;;;5039604;28;20204;-73
2021/12/04 14:17:16;;;;;;;1.00;0.60;;;6.90;99.90;;;;;;5055336;28;20119;-72
2021/12/04 14:19:43;;;;;;;0.77;0.45;;;6.90;99.90;;;;;;5063410;28;20120;-72
2021/12/04 14:22:20;;;;;;;0.80;0.80;;;6.90;99.90;;;;;;5064490;28;20467;-73
2021/12/04 14:24:50;;;;;;;2.35;0.68;;;6.80;99.90;;;;;;5052514;28;20139;-73
2021/12/04 14:27:31;;;;;;;1.58;0.50;;;6.80;99.90;;;;;;5050924;28;20106;-72
2021/12/04 14:30:11;;;;;;;2.00;0.73;;;6.70;99.90;;;;;;5051285;28;20067;-73
2021/12/04 14:32:46;;;;;;;0.90;0.70;;;6.70;99.90;;;;;;5051494;28;20092;-73
2021/12/04 14:35:19;;;;;;;1.10;0.63;;;6.60;99.90;;;;;;5035907;28;20131;-73
2021/12/04 14:37:54;;;;;;;0.98;0.60;;;6.60;99.90;;;;;;5052480;28;20045;-73
2021/12/04 14:40:46;;;;;;;1.50;1.15;;;6.60;99.90;;;;;;5051775;28;20136;-73
2021/12/04 14:43:16;;;;;;;0.90;0.63;;;6.50;99.90;;;;;;5051007;28;20136;-73
2021/12/04 14:45:51;;;;;;;0.80;0.57;;;6.50;99.90;;;;;;5050652;28;20144;-73
2021/12/04 14:48:33;;;;;;;0.85;0.68;;;6.60;99.90;;;;;;5051796;28;20052;-73
2021/12/04 14:51:06;;;;;;;0.70;0.55;;;6.60;99.90;;;;;;5049843;28;20119;-73
2021/12/04 14:53:44;;;;;;;2.10;0.80;;;6.60;99.90;;;;;;5069143;28;20040;-73
2021/12/04 14:56:19;;;;;;;1.95;0.88;;;6.60;99.90;;;;;;5063658;28;20117;-73
2021/12/04 14:58:51;;;;;;;1.00;0.60;;;6.60;99.90;;;;;;5050085;28;20515;-73
2021/12/04 15:01:20;;;;;;;1.00;0.75;;;6.60;99.90;;;;;;5051143;28;20041;-73
2021/12/04 15:03:58;;;;;;;1.33;0.85;;;6.60;99.90;;;;;;5070607;28;20052;-73
2021/12/04 15:06:27;;;;;;;1.05;0.70;;;6.60;99.90;;;;;;5062220;28;20095;-73
2021/12/04 15:08:59;;;;;;;0.95;0.60;;;6.50;99.90;;;;;;5061561;28;20087;-73
2021/12/04 15:11:34;;;;;;;0.73;0.50;;;6.50;99.90;;;;;;5053643;28;20067;-73
2021/12/04 15:14:15;;;;;;;0.68;0.40;;;6.50;99.90;;;;;;5070865;28;20567;-73
2021/12/04 15:16:58;;;;;;;0.90;0.55;;;6.50;99.90;;;;;;5060178;28;20041;-73
2021/12/04 15:19:53;;;;;;;1.50;0.70;;;6.50;99.90;;;;;;5066317;28;20467;-73
2021/12/04 15:22:41;;;;;;;2.00;0.55;;;6.50;99.90;;;;;;5056207;28;20651;-73
2021/12/04 15:25:19;;;;;;;0.65;0.43;;;6.50;99.90;;;;;;5057154;28;20123;-73
2021/12/04 15:27:51;;;;;;;1.08;0.60;;;6.40;99.90;;;;;;5052563;28;20090;-73
2021/12/04 15:30:19;;;;;;;0.77;0.57;;;6.40;99.90;;;;;;5070472;28;20068;-73
2021/12/04 15:32:54;;;;;;;0.88;0.60;;;6.40;99.90;;;;;;5057258;28;20051;-74
2021/12/04 15:35:36;;;;;;;0.63;0.50;;;6.30;99.90;;;;;;5053413;28;20500;-73
2021/12/04 15:38:16;;;;;;;1.27;0.60;;;6.20;99.90;;;;;;5050825;28;20071;-73
2021/12/04 15:54:31;;;;;;;0.80;0.60;;;6.30;99.90;;;;;;4983918;28;20106;-73
2021/12/04 15:57:10;;;;;;;0.95;0.40;;;6.40;99.90;;;;;;4973077;28;20515;-73
2021/12/04 15:59:47;;;;;;;1.20;0.60;;;6.40;99.90;;;;;;4976190;28;20062;-73
2021/12/04 16:02:19;;;;;;;1.52;1.00;;;6.40;99.90;;;;;;4974352;28;20074;-73
2021/12/04 16:04:51;;;;;;;1.00;0.90;;;6.50;99.90;;;;;;4970503;28;20058;-73
2021/12/04 16:07:29;;;;;;;0.70;0.60;;;6.50;99.90;;;;;;4994179;28;20089;-73
2021/12/04 16:10:15;;;;;;;0.80;0.55;;;6.40;99.90;;;;;;4978691;28;20065;-73
2021/12/04 16:12:56;;;;;;;0.75;0.52;;;6.40;99.90;;;;;;4973789;28;20124;-73
2021/12/04 16:15:28;;;;;;;0.60;0.55;;;6.40;99.90;;;;;;4971438;28;20047;-73
2021/12/04 16:17:58;;;;;;;0.85;0.50;;;6.40;99.90;;;;;;4974553;28;20085;-73
2021/12/04 16:20:31;;;;;;;;;;;6.50;99.90;;;;;;4975965;28;20042;-74
2021/12/04 16:23:04;;;;;;;1.38;0.50;;;6.50;99.90;;;;;;4975691;28;19922;-73
2021/12/04 16:25:38;;;;;;;1.45;1.15;;;6.50;99.90;;;;;;4955019;28;20067;-73
2021/12/04 16:28:34;;;;;;;1.02;0.60;;;6.50;99.90;;;;;;4967176;28;20142;-73
2021/12/04 16:31:28;;;;;;;0.88;0.75;;;6.50;99.90;;;;;;4971349;28;20098;-73
2021/12/04 16:37:29;;;;;;;2.03;1.00;;;6.60;99.90;;;;;;4952971;28;20067;-73
2021/12/04 16:39:58;;;;;;;1.23;0.60;;;6.60;99.90;;;;;;4984323;28;20046;-73
2021/12/04 16:42:33;;;;;;;0.70;0.50;;;6.60;99.90;;;;;;4993930;28;20046;-73
2021/12/04 16:45:12;;;;;;;1.33;0.82;;;6.60;99.90;;;;;;4993592;28;20086;-73
2021/12/04 16:47:46;;;;;;;1.10;0.90;;;6.60;99.90;;;;;;4977742;28;20415;-73
2021/12/04 16:50:18;;;;;;;1.70;0.95;;;6.60;99.90;;;;;;4977088;28;20136;-73
2021/12/04 16:58:18;;;;;;;1.63;0.98;;;6.60;99.90;;;;;;4990808;28;20501;-73
2021/12/04 17:00:52;;;;;;;2.60;1.00;;;6.60;99.90;;;;;;4993843;28;20093;-73
2021/12/04 17:03:24;;;;;;;1.30;1.10;;;6.60;99.90;;;;;;4993026;28;20066;-74
2021/12/04 17:05:55;;;;;;;1.75;1.00;;;6.50;99.90;;;;;;4977527;28;20137;-73
2021/12/04 17:08:28;;;;;;;1.42;0.98;;;6.50;99.90;;;;;;4991622;28;20058;-74
2021/12/04 17:10:55;;;;;;;1.42;1.20;;;6.50;99.90;;;;;;4993608;28;20069;-74